METAR Data
IDs: Format: Raw Decoded Include TAF

Data at: 0142 UTC 10 Dec 2022

METAR for:KMGY (Dayton/Wright Brothe, OH, US)
Text:KMGY 100130Z AUTO 05007KT 3SM BR OVC006 06/05 A3012 RMK AO2 T00610050
Temperature: 6.1°C ( 43°F)
Dewpoint: 5.0°C ( 41°F) [RH = 93%]
Pressure (altimeter):30.12 inches Hg (1020.1 mb)
Winds:from the NE (50 degrees) at 8 MPH (7 knots; 3.6 m/s)
Visibility: 3 sm ( 5 km)
Ceiling:600 feet AGL
Clouds: overcast cloud deck at 600 feet AGL
Weather:BR (mist)
QC Flag:automated observation with no human augmentation